Time;durP1;ratioP1;P1;durP2;ratioP2;P2;SDS_P1;SDS_P2;PMS_P1;PMS_P2;Temp;Humidity;BMP_temperature;BMP_pressure;BME280_temperature;BME280_humidity;BME280_pressure;Samples;Min_cycle;Max_cycle;Signal;HPM_P1;HPM_P2
2022/05/12 00:01:51;;;;;;;;;;;19.80;64.90;;;;;;5073837;28;20375;-91
2022/05/12 00:04:17;;;;;;;;;;;19.80;65.00;;;;;;5074025;28;20335;-91
2022/05/12 00:06:42;;;;;;;;;;;19.80;65.00;;;;;;5074714;28;19916;-90
2022/05/12 00:09:07;;;;;;;;;;;19.80;65.00;;;;;;5074690;28;19954;-89
2022/05/12 00:11:33;;;;;;;;;;;19.80;65.00;;;;;;5074270;28;19935;-90
2022/05/12 00:13:58;;;;;;;;;;;19.80;65.00;;;;;;5073449;28;19909;-90
2022/05/12 00:16:24;;;;;;;;;;;19.80;65.00;;;;;;5073721;28;19917;-89
2022/05/12 00:18:50;;;;;;;;;;;19.80;64.90;;;;;;5075872;28;19916;-89
2022/05/12 00:21:15;;;;;;;;;;;19.90;64.90;;;;;;5077815;28;19916;-89
2022/05/12 00:23:41;;;;;;;;;;;19.90;65.00;;;;;;5076100;28;19924;-89
2022/05/12 00:26:06;;;;;;;;;;;19.90;64.70;;;;;;5076995;28;19916;-88
2022/05/12 00:28:32;;;;;;;;;;;20.00;64.90;;;;;;5076121;28;19978;-89
2022/05/12 00:30:58;;;;;;;;;;;20.00;64.80;;;;;;5077086;28;19909;-88
2022/05/12 00:33:26;;;;;;;;;;;20.00;64.70;;;;;;5077570;28;19970;-89
2022/05/12 00:35:52;;;;;;;;;;;20.00;64.70;;;;;;5077601;28;19940;-88
2022/05/12 00:38:17;;;;;;;;;;;20.10;64.80;;;;;;5076549;28;19943;-89
2022/05/12 00:40:43;;;;;;;;;;;20.10;64.80;;;;;;5077203;28;20403;-89
2022/05/12 00:43:29;;;;;;;;;;;20.10;64.70;;;;;;5077405;28;19931;-89
2022/05/12 00:45:54;;;;;;;;;;;20.10;64.60;;;;;;5076787;28;20045;-89
2022/05/12 00:48:20;;;;;;;;;;;20.20;64.40;;;;;;5075663;28;20028;-89
2022/05/12 00:50:45;;;;;;;;;;;20.20;64.60;;;;;;5076852;28;19912;-89
2022/05/12 00:53:12;;;;;;;;;;;20.20;64.50;;;;;;5075785;28;19912;-89
2022/05/12 00:55:39;;;;;;;;;;;20.20;64.50;;;;;;5075938;28;19919;-89
2022/05/12 00:58:06;;;;;;;;;;;20.20;64.40;;;;;;5076236;28;20218;-89
2022/05/12 01:00:32;;;;;;;;;;;20.30;64.20;;;;;;5074369;28;19989;-89
2022/05/12 01:03:00;;;;;;;;;;;20.20;64.10;;;;;;5076554;28;19916;-89
2022/05/12 01:05:26;;;;;;;;;;;20.20;64.30;;;;;;5075431;28;19919;-89
2022/05/12 01:07:55;;;;;;;;;;;20.20;64.40;;;;;;5075155;28;19912;-89
2022/05/12 01:10:20;;;;;;;;;;;20.30;64.40;;;;;;5074379;28;19912;-89
2022/05/12 01:12:48;;;;;;;;;;;20.30;64.00;;;;;;5075322;28;20479;-89
2022/05/12 01:15:14;;;;;;;;;;;20.30;64.10;;;;;;5075989;28;19936;-89
2022/05/12 01:17:40;;;;;;;;;;;20.30;64.10;;;;;;5075348;28;19920;-89
2022/05/12 01:20:06;;;;;;;;;;;20.30;64.00;;;;;;5075378;28;19940;-89
2022/05/12 01:22:52;;;;;;;;;;;20.30;63.90;;;;;;5075246;28;19947;-89
2022/05/12 01:25:20;;;;;;;;;;;20.30;64.10;;;;;;5075306;28;19913;-89
2022/05/12 01:27:45;;;;;;;;;;;20.30;63.70;;;;;;5074111;28;19916;-88
2022/05/12 01:30:13;;;;;;;;;;;20.30;63.70;;;;;;5074126;28;20617;-89
2022/05/12 01:32:39;;;;;;;;;;;20.30;63.70;;;;;;5073436;28;19917;-89
2022/05/12 01:35:07;;;;;;;;;;;20.20;62.90;;;;;;5075053;28;20280;-89
2022/05/12 01:37:36;;;;;;;;;;;20.10;62.70;;;;;;5074530;28;19943;-89
2022/05/12 01:40:03;;;;;;;;;;;20.00;62.30;;;;;;5074229;28;20295;-89
2022/05/12 01:42:28;;;;;;;;;;;19.80;61.90;;;;;;5074061;28;20329;-88
2022/05/12 01:44:53;;;;;;;;;;;19.60;61.70;;;;;;5075523;28;19913;-89
2022/05/12 01:47:19;;;;;;;;;;;19.40;61.40;;;;;;5073474;28;19916;-88
2022/05/12 01:49:45;;;;;;;;;;;19.30;61.20;;;;;;5073621;28;19919;-89
2022/05/12 01:52:10;;;;;;;;;;;19.10;61.20;;;;;;5073591;28;19916;-89
2022/05/12 01:54:36;;;;;;;;;;;18.90;61.00;;;;;;5074989;28;20467;-90
2022/05/12 01:57:01;;;;;;;;;;;18.70;60.80;;;;;;5073185;28;19913;-89
2022/05/12 01:59:27;;;;;;;;;;;18.60;60.60;;;;;;5075906;28;19922;-88
2022/05/12 02:01:52;;;;;;;;;;;18.40;60.60;;;;;;5075437;28;19999;-89
2022/05/12 02:04:18;;;;;;;;;;;18.20;60.70;;;;;;5074632;28;20007;-88
2022/05/12 02:06:44;;;;;;;;;;;18.10;60.50;;;;;;5073186;28;19916;-89
2022/05/12 02:09:10;;;;;;;;;;;17.90;60.60;;;;;;5074459;28;19955;-88
2022/05/12 02:11:36;;;;;;;;;;;17.80;60.70;;;;;;5074933;28;19924;-88
2022/05/12 02:14:02;;;;;;;;;;;17.60;60.70;;;;;;5074247;28;20003;-88
2022/05/12 02:16:29;;;;;;;;;;;17.50;60.70;;;;;;5073363;28;20381;-88
2022/05/12 02:18:55;;;;;;;;;;;17.30;60.80;;;;;;5073249;28;20303;-88
2022/05/12 02:21:21;;;;;;;;;;;17.30;61.00;;;;;;5074529;28;19923;-88
2022/05/12 02:23:46;;;;;;;;;;;17.10;60.90;;;;;;5073255;28;19912;-88
2022/05/12 02:26:12;;;;;;;;;;;17.00;60.80;;;;;;5072838;28;19908;-88
2022/05/12 02:28:37;;;;;;;;;;;16.90;60.90;;;;;;5073249;28;19934;-88
2022/05/12 02:31:03;;;;;;;;;;;16.80;61.10;;;;;;5074360;28;19978;-88
2022/05/12 02:33:29;;;;;;;;;;;16.70;61.20;;;;;;5074290;28;19920;-88
2022/05/12 02:35:55;;;;;;;;;;;16.60;61.20;;;;;;5073945;28;19917;-88
2022/05/12 02:38:21;;;;;;;;;;;16.50;61.10;;;;;;5072435;28;20365;-88
2022/05/12 02:40:46;;;;;;;;;;;16.40;60.90;;;;;;5072397;28;19959;-88
2022/05/12 02:43:24;;;;;;;;;;;16.30;61.00;;;;;;5074655;28;19923;-88
2022/05/12 02:46:00;;;;;;;;;;;16.20;61.00;;;;;;5072813;28;19912;-89
2022/05/12 02:48:27;;;;;;;;;;;16.20;61.10;;;;;;5074284;28;19916;-88
2022/05/12 02:50:53;;;;;;;;;;;16.10;61.20;;;;;;5073616;28;19916;-88
2022/05/12 02:53:19;;;;;;;;;;;16.00;61.20;;;;;;5073911;28;19916;-88
2022/05/12 02:55:45;;;;;;;;;;;15.90;61.20;;;;;;5073999;28;20364;-88
2022/05/12 02:58:11;;;;;;;;;;;15.90;61.20;;;;;;5073182;28;20007;-88
2022/05/12 03:00:36;;;;;;;;;;;15.80;61.50;;;;;;5074047;28;19920;-88
2022/05/12 03:03:02;;;;;;;;;;;15.80;61.40;;;;;;5073011;28;19920;-88
2022/05/12 03:05:27;;;;;;;;;;;15.70;61.40;;;;;;5072688;28;19909;-89
2022/05/12 03:07:53;;;;;;;;;;;15.70;61.40;;;;;;5072543;28;20391;-88
2022/05/12 03:10:19;;;;;;;;;;;15.60;61.30;;;;;;5072588;28;19920;-88
2022/05/12 03:12:44;;;;;;;;;;;15.50;61.60;;;;;;5072295;28;19920;-89
2022/05/12 03:15:11;;;;;;;;;;;15.50;61.70;;;;;;5073854;28;19917;-88
2022/05/12 03:17:37;;;;;;;;;;;15.50;61.40;;;;;;5072101;28;19924;-90
2022/05/12 03:20:04;;;;;;;;;;;15.40;61.10;;;;;;5071993;28;20029;-89
2022/05/12 03:22:29;;;;;;;;;;;15.30;60.60;;;;;;5072304;28;19920;-90
2022/05/12 03:24:55;;;;;;;;;;;15.30;60.60;;;;;;5073498;28;19978;-90
2022/05/12 03:27:20;;;;;;;;;;;15.20;60.80;;;;;;5072322;28;19916;-89
2022/05/12 03:29:45;;;;;;;;;;;15.10;60.90;;;;;;5070036;28;19912;-90
2022/05/12 03:32:12;;;;;;;;;;;15.10;60.90;;;;;;5072881;28;19917;-89
2022/05/12 03:34:39;;;;;;;;;;;15.00;61.00;;;;;;5072578;28;19913;-90
2022/05/12 03:37:05;;;;;;;;;;;15.00;61.20;;;;;;5071824;28;19958;-90
2022/05/12 03:39:31;;;;;;;;;;;15.00;61.30;;;;;;5071736;28;20364;-89
2022/05/12 03:41:56;;;;;;;;;;;14.90;61.20;;;;;;5073445;28;20019;-90
2022/05/12 03:47:05;;;;;;;;;;;14.90;61.20;;;;;;5073521;28;20016;-89
2022/05/12 03:49:31;;;;;;;;;;;14.80;61.50;;;;;;5072322;28;20320;-89
2022/05/12 03:51:57;;;;;;;;;;;14.90;61.80;;;;;;5074153;28;19960;-89
2022/05/12 03:54:23;;;;;;;;;;;15.00;62.10;;;;;;5062968;28;19916;-89
2022/05/12 03:56:48;;;;;;;;;;;15.10;62.50;;;;;;5075139;28;20003;-89
2022/05/12 03:59:14;;;;;;;;;;;15.20;63.00;;;;;;5076934;28;19934;-90
2022/05/12 04:01:39;;;;;;;;;;;15.30;63.40;;;;;;5076865;28;19916;-89
2022/05/12 04:04:05;;;;;;;;;;;15.50;63.80;;;;;;5076136;28;20386;-89
2022/05/12 04:06:30;;;;;;;;;;;15.70;64.20;;;;;;5075107;28;19917;-89
2022/05/12 04:08:56;;;;;;;;;;;15.90;64.40;;;;;;5076078;28;19913;-89
2022/05/12 04:11:21;;;;;;;;;;;16.10;64.70;;;;;;5074725;28;19920;-89
2022/05/12 04:13:47;;;;;;;;;;;16.30;64.90;;;;;;5074829;28;19913;-90
2022/05/12 04:16:12;;;;;;;;;;;16.70;65.10;;;;;;5073741;28;20340;-89
2022/05/12 04:18:38;;;;;;;;;;;16.90;65.30;;;;;;5075118;28;19912;-90
2022/05/12 04:21:03;;;;;;;;;;;17.20;65.40;;;;;;5075928;28;19916;-90
2022/05/12 04:23:29;;;;;;;;;;;17.50;65.70;;;;;;5074521;28;19912;-90
2022/05/12 04:25:54;;;;;;;;;;;17.80;66.10;;;;;;5072036;28;19956;-90
2022/05/12 04:28:20;;;;;;;;;;;18.10;66.40;;;;;;5075069;28;19925;-90
2022/05/12 04:30:45;;;;;;;;;;;18.40;66.50;;;;;;5073749;28;19918;-90
2022/05/12 04:35:55;;;;;;;;;;;19.10;66.60;;;;;;5076307;28;20054;-90
2022/05/12 04:38:21;;;;;;;;;;;19.50;66.70;;;;;;5075518;28;19981;-90
2022/05/12 04:40:48;;;;;;;;;;;19.80;66.50;;;;;;5079291;28;19918;-88
2022/05/12 04:43:13;;;;;;;;;;;20.20;66.50;;;;;;5079532;28;19923;-88
2022/05/12 04:45:40;;;;;;;;;;;20.50;66.50;;;;;;5076301;28;19908;-89
2022/05/12 04:48:06;;;;;;;;;;;20.80;66.50;;;;;;5077018;28;19925;-87
2022/05/12 04:50:33;;;;;;;;;;;21.30;66.20;;;;;;5075267;28;19908;-89
2022/05/12 04:52:59;;;;;;;;;;;21.50;66.10;;;;;;5075650;28;20348;-89
2022/05/12 04:55:24;;;;;;;;;;;21.80;65.90;;;;;;5073141;28;19917;-89
2022/05/12 04:57:53;;;;;;;;;;;22.20;65.80;;;;;;5075736;28;19999;-90
2022/05/12 05:00:35;;;;;;;;;;;22.50;65.70;;;;;;5076104;28;19924;-89
2022/05/12 05:03:01;;;;;;;;;;;22.80;65.70;;;;;;5074451;28;19943;-90
2022/05/12 05:05:27;;;;;;;;;;;23.20;65.10;;;;;;5074390;28;19912;-91
2022/05/12 05:07:52;;;;;;;;;;;23.50;64.50;;;;;;5089791;28;20398;-91
2022/05/12 05:10:18;;;;;;;;;;;23.80;64.30;;;;;;5077862;28;19999;-91
2022/05/12 05:12:43;;;;;;;;;;;24.10;64.40;;;;;;5066635;28;19938;-91
2022/05/12 05:15:10;;;;;;;;;;;24.30;63.80;;;;;;5075483;28;19917;-90
2022/05/12 05:17:36;;;;;;;;;;;24.60;63.20;;;;;;5075018;28;19917;-91
2022/05/12 05:20:06;;;;;;;;;;;24.80;63.80;;;;;;5075618;28;19927;-94
2022/05/12 05:22:32;;;;;;;;;;;25.10;63.00;;;;;;5077552;28;20406;-91
2022/05/12 05:24:58;;;;;;;;;;;25.40;63.20;;;;;;5076307;28;19920;-91
2022/05/12 05:27:24;;;;;;;;;;;25.70;63.00;;;;;;5075312;28;19917;-91
2022/05/12 05:29:51;;;;;;;;;;;26.00;61.60;;;;;;5076642;28;19944;-91
2022/05/12 05:32:16;;;;;;;;;;;26.20;61.90;;;;;;5076962;28;19917;-91
2022/05/12 05:34:41;;;;;;;;;;;26.50;61.70;;;;;;5076191;28;19935;-88
2022/05/12 05:37:07;;;;;;;;;;;26.80;61.80;;;;;;5075671;28;20011;-89
2022/05/12 05:39:33;;;;;;;;;;;27.10;61.30;;;;;;5076245;28;19924;-90
2022/05/12 05:42:01;;;;;;;;;;;27.40;62.00;;;;;;5076810;28;19920;-89
2022/05/12 05:44:28;;;;;;;;;;;27.80;59.90;;;;;;5074604;28;19919;-89
2022/05/12 05:46:54;;;;;;;;;;;28.10;60.30;;;;;;5073968;28;19921;-89
2022/05/12 05:49:20;;;;;;;;;;;28.40;58.20;;;;;;5084349;28;19964;-89
2022/05/12 05:54:31;;;;;;;;;;;28.90;57.30;;;;;;5081543;28;19923;-90
2022/05/12 05:56:57;;;;;;;;;;;29.30;57.80;;;;;;5088883;28;19923;-90
2022/05/12 05:59:23;;;;;;;;;;;29.70;58.20;;;;;;5097257;28;19942;-89
2022/05/12 06:01:49;;;;;;;;;;;30.10;55.00;;;;;;5085551;28;19920;-89
2022/05/12 06:04:16;;;;;;;;;;;30.30;54.50;;;;;;5079526;28;20555;-90
2022/05/12 06:06:42;;;;;;;;;;;30.70;54.70;;;;;;5074997;28;19917;-89
2022/05/12 06:09:08;;;;;;;;;;;31.00;53.10;;;;;;5075369;28;19961;-89
2022/05/12 06:11:33;;;;;;;;;;;31.30;51.40;;;;;;5076997;28;20007;-90
2022/05/12 06:13:59;;;;;;;;;;;31.80;49.70;;;;;;5075466;28;20002;-89
2022/05/12 06:16:24;;;;;;;;;;;32.10;47.40;;;;;;5074656;28;19917;-90
2022/05/12 06:18:50;;;;;;;;;;;32.20;45.60;;;;;;5074178;28;19926;-89
2022/05/12 06:21:16;;;;;;;;;;;32.50;45.90;;;;;;5074391;28;19912;-90
2022/05/12 06:23:41;;;;;;;;;;;32.80;44.70;;;;;;5074081;28;19919;-90
2022/05/12 06:26:13;;;;;;;;;;;32.80;41.70;;;;;;5073650;28;20368;-90
2022/05/12 06:28:40;;;;;;;;;;;32.90;40.80;;;;;;5073786;28;19920;-90
2022/05/12 06:31:06;;;;;;;;;;;33.10;41.00;;;;;;5073721;28;20307;-90
2022/05/12 06:33:33;;;;;;;;;;;33.30;39.00;;;;;;5076100;28;19931;-89
2022/05/12 06:36:01;;;;;;;;;;;33.50;38.90;;;;;;5074080;28;19935;-90
2022/05/12 06:38:27;;;;;;;;;;;33.70;38.20;;;;;;5074239;28;19912;-89
2022/05/12 06:40:53;;;;;;;;;;;33.90;35.40;;;;;;5074863;28;19927;-90
2022/05/12 06:43:18;;;;;;;;;;;34.00;32.00;;;;;;5074794;28;19924;-89
2022/05/12 06:45:44;;;;;;;;;;;33.90;31.20;;;;;;5075024;28;19935;-90
2022/05/12 06:48:09;;;;;;;;;;;33.80;31.10;;;;;;5073453;28;20012;-89
2022/05/12 06:50:35;;;;;;;;;;;33.80;30.70;;;;;;5073398;28;19919;-89
2022/05/12 06:53:00;;;;;;;;;;;33.40;29.90;;;;;;5073515;28;19952;-89
2022/05/12 06:55:27;;;;;;;;;;;33.10;29.50;;;;;;5074994;28;19912;-89
2022/05/12 06:57:53;;;;;;;;;;;33.20;30.70;;;;;;5073382;28;19927;-89
2022/05/12 07:00:20;;;;;;;;;;;33.40;29.70;;;;;;5073134;28;20049;-89
2022/05/12 07:02:47;;;;;;;;;;;33.80;29.60;;;;;;5074383;28;19940;-89
2022/05/12 07:05:14;;;;;;;;;;;34.10;29.20;;;;;;5073395;28;19917;-89
2022/05/12 07:07:42;;;;;;;;;;;34.00;27.90;;;;;;5076455;28;20421;-89
2022/05/12 07:10:08;;;;;;;;;;;34.10;28.30;;;;;;5076446;28;19913;-88
2022/05/12 07:12:33;;;;;;;;;;;34.30;29.00;;;;;;5075067;28;19920;-88
2022/05/12 07:14:59;;;;;;;;;;;34.70;28.50;;;;;;5074608;28;19962;-89
2022/05/12 07:17:25;;;;;;;;;;;35.10;27.20;;;;;;5075616;28;19916;-89
2022/05/12 07:19:52;;;;;;;;;;;35.50;26.80;;;;;;5074336;28;19931;-89
2022/05/12 07:27:46;;;;;;;;;;;35.20;25.70;;;;;;5080226;28;19970;-88
2022/05/12 07:30:12;;;;;;;;;;;35.20;25.20;;;;;;5088241;28;19912;-88
2022/05/12 07:32:37;;;;;;;;;;;35.20;24.90;;;;;;5082147;28;20378;-90
2022/05/12 07:35:07;;;;;;;;;;;35.40;24.50;;;;;;5086033;28;19980;-90
2022/05/12 07:37:32;;;;;;;;;;;35.80;24.50;;;;;;5078846;28;20003;-90
2022/05/12 07:39:58;;;;;;;;;;;35.90;24.00;;;;;;5077509;28;19970;-90
2022/05/12 07:42:23;;;;;;;;;;;36.00;23.90;;;;;;5078209;28;19921;-89
2022/05/12 07:44:49;;;;;;;;;;;36.00;23.50;;;;;;5078115;28;20025;-90
2022/05/12 07:47:14;;;;;;;;;;;35.90;23.30;;;;;;5078442;28;19917;-88
2022/05/12 07:49:40;;;;;;;;;;;35.90;23.10;;;;;;5077398;28;19923;-90
2022/05/12 07:52:07;;;;;;;;;;;36.10;23.20;;;;;;5078956;28;19916;-90
2022/05/12 07:54:32;;;;;;;;;;;36.20;22.60;;;;;;5077931;28;19913;-90
2022/05/12 07:56:58;;;;;;;;;;;36.20;22.50;;;;;;5077580;28;19916;-90
2022/05/12 07:59:23;;;;;;;;;;;36.20;22.50;;;;;;5078552;28;19916;-91
2022/05/12 08:01:49;;;;;;;;;;;36.20;22.30;;;;;;5077902;28;20011;-90
2022/05/12 08:04:14;;;;;;;;;;;36.10;22.20;;;;;;5078717;28;19999;-89
2022/05/12 08:06:41;;;;;;;;;;;36.00;22.00;;;;;;5078339;28;20412;-90
2022/05/12 08:09:07;;;;;;;;;;;36.00;22.20;;;;;;5076288;28;19908;-90
2022/05/12 08:11:32;;;;;;;;;;;36.20;22.20;;;;;;5075636;28;20027;-89
2022/05/12 08:13:58;;;;;;;;;;;36.20;21.80;;;;;;5075569;28;19920;-90
2022/05/12 08:16:23;;;;;;;;;;;36.40;21.20;;;;;;5076050;28;19924;-91
2022/05/12 08:18:49;;;;;;;;;;;36.40;21.10;;;;;;5075691;28;19916;-89
2022/05/12 08:21:20;;;;;;;;;;;36.40;21.20;;;;;;5076040;28;20363;-91
2022/05/12 08:23:47;;;;;;;;;;;36.60;20.90;;;;;;5075813;28;20265;-90
2022/05/12 08:26:12;;;;;;;;;;;36.80;20.50;;;;;;5075491;28;19919;-89
2022/05/12 08:28:40;;;;;;;;;;;36.80;20.20;;;;;;5077244;28;19913;-89
2022/05/12 08:31:05;;;;;;;;;;;36.90;20.80;;;;;;5076395;28;19908;-87
2022/05/12 08:33:31;;;;;;;;;;;37.00;20.70;;;;;;5077567;28;19920;-89
2022/05/12 08:35:56;;;;;;;;;;;37.00;20.20;;;;;;5079007;28;20332;-90
2022/05/12 08:38:22;;;;;;;;;;;36.90;20.20;;;;;;5077777;28;19971;-89
2022/05/12 08:41:03;;;;;;;;;;;37.00;20.00;;;;;;5077286;28;19912;-89
2022/05/12 08:43:54;;;;;;;;;;;37.20;19.90;;;;;;5077329;28;19927;-90
2022/05/12 08:46:22;;;;;;;;;;;37.10;19.90;;;;;;5074672;28;20275;-89
2022/05/12 08:48:49;;;;;;;;;;;36.80;19.70;;;;;;5076769;28;19916;-89
2022/05/12 08:51:16;;;;;;;;;;;36.40;20.10;;;;;;5077319;28;19928;-89
2022/05/12 08:54:03;;;;;;;;;;;36.20;20.20;;;;;;5075411;28;19913;-89
2022/05/12 08:56:29;;;;;;;;;;;35.80;20.20;;;;;;5075570;28;19920;-89
2022/05/12 08:58:55;;;;;;;;;;;35.50;20.60;;;;;;5075270;28;19913;-89
2022/05/12 09:01:21;;;;;;;;;;;35.40;21.10;;;;;;5075477;28;19921;-90
2022/05/12 09:03:59;;;;;;;;;;;35.60;21.50;;;;;;5075012;28;19909;-89
2022/05/12 09:06:49;;;;;;;;;;;35.90;21.50;;;;;;5075395;28;19923;-89
2022/05/12 09:09:23;;;;;;;;;;;36.40;21.40;;;;;;5076808;28;19959;-90
2022/05/12 09:12:18;;;;;;;;;;;36.90;21.00;;;;;;5076499;28;19920;-90
2022/05/12 09:14:51;;;;;;;;;;;37.40;20.70;;;;;;5077177;28;19913;-90
2022/05/12 09:17:22;;;;;;;;;;;37.50;20.10;;;;;;5076205;28;20013;-88
2022/05/12 09:19:48;;;;;;;;;;;37.70;19.80;;;;;;5075680;28;19920;-90
2022/05/12 09:22:13;;;;;;;;;;;37.80;19.30;;;;;;5074983;28;20050;-90
2022/05/12 09:24:39;;;;;;;;;;;37.80;19.40;;;;;;5075191;28;20355;-88
2022/05/12 09:27:09;;;;;;;;;;;38.00;19.10;;;;;;5074649;28;19916;-89
2022/05/12 09:29:46;;;;;;;;;;;38.30;18.90;;;;;;5076152;28;19995;-89
2022/05/12 09:32:11;;;;;;;;;;;38.60;18.60;;;;;;5074663;28;19951;-89
2022/05/12 09:34:42;;;;;;;;;;;39.10;18.30;;;;;;5076337;28;19919;-92
2022/05/12 09:37:16;;;;;;;;;;;39.40;18.10;;;;;;5077700;28;19956;-91
2022/05/12 09:39:44;;;;;;;;;;;39.80;17.70;;;;;;5081237;28;19970;-91
2022/05/12 09:42:33;;;;;;;;;;;40.10;17.40;;;;;;5080254;28;20280;-91
2022/05/12 09:44:58;;;;;;;;;;;40.30;16.90;;;;;;5076185;28;20248;-90
2022/05/12 09:47:25;;;;;;;;;;;40.60;16.70;;;;;;5079550;28;19923;-90
2022/05/12 09:49:51;;;;;;;;;;;40.80;16.70;;;;;;5074900;28;19966;-90
2022/05/12 09:52:24;;;;;;;;;;;41.10;16.30;;;;;;5076597;28;19973;-90
2022/05/12 09:55:07;;;;;;;;;;;41.50;16.40;;;;;;5076691;28;20356;-90
2022/05/12 09:57:35;;;;;;;;;;;41.80;16.20;;;;;;5075233;28;19924;-90
2022/05/12 10:00:04;;;;;;;;;;;41.60;16.00;;;;;;5077243;28;19988;-92
2022/05/12 10:08:16;;;;;;;;;;;41.30;16.70;;;;;;5080453;28;19974;-91
2022/05/12 10:10:42;;;;;;;;;;;41.60;16.40;;;;;;5078519;28;19935;-92
2022/05/12 10:13:19;;;;;;;;;;;42.00;15.90;;;;;;5079865;28;20361;-92
2022/05/12 10:15:46;;;;;;;;;;;42.30;15.40;;;;;;5089132;28;20002;-89
2022/05/12 10:18:24;;;;;;;;;;;42.30;14.90;;;;;;5100952;28;19957;-90
2022/05/12 10:20:52;;;;;;;;;;;42.00;14.90;;;;;;5082892;28;19920;-91
2022/05/12 10:23:31;;;;;;;;;;;41.30;15.20;;;;;;5078300;28;19916;-89
2022/05/12 10:26:15;;;;;;;;;;;40.60;15.60;;;;;;5092481;28;19919;-90
2022/05/12 10:28:53;;;;;;;;;;;40.10;16.10;;;;;;5095182;28;19916;-91
2022/05/12 10:31:32;;;;;;;;;;;40.20;16.50;;;;;;5095387;28;20031;-90
2022/05/12 10:34:16;;;;;;;;;;;40.50;16.20;;;;;;5096092;28;19916;-91
2022/05/12 10:37:00;;;;;;;;;;;40.70;15.90;;;;;;5088613;28;19917;-90
2022/05/12 10:39:47;;;;;;;;;;;40.20;15.70;;;;;;5075153;28;19917;-91
2022/05/12 10:42:15;;;;;;;;;;;40.20;15.90;;;;;;5075435;28;19920;-89
2022/05/12 10:45:00;;;;;;;;;;;40.40;15.40;;;;;;5074791;28;19916;-90
2022/05/12 10:47:26;;;;;;;;;;;40.50;15.60;;;;;;5075036;28;20370;-90
2022/05/12 10:49:54;;;;;;;;;;;40.90;15.50;;;;;;5092507;28;19908;-90
2022/05/12 10:52:24;;;;;;;;;;;41.40;15.20;;;;;;5095954;28;20067;-91
2022/05/12 10:55:02;;;;;;;;;;;41.80;14.50;;;;;;5095719;28;20275;-90
2022/05/12 10:57:38;;;;;;;;;;;41.80;14.30;;;;;;5095789;28;20011;-90
2022/05/12 11:00:18;;;;;;;;;;;41.80;14.00;;;;;;5096504;28;19923;-91
2022/05/12 11:02:50;;;;;;;;;;;41.80;14.40;;;;;;5094433;28;19968;-90
2022/05/12 11:05:22;;;;;;;;;;;41.70;14.40;;;;;;5096131;28;19908;-90
2022/05/12 11:07:50;;;;;;;;;;;41.10;14.80;;;;;;5095770;28;19917;-91
2022/05/12 11:10:27;;;;;;;;;;;40.40;15.10;;;;;;5096333;28;19909;-91
2022/05/12 11:12:55;;;;;;;;;;;39.70;15.50;;;;;;5096097;28;19995;-90
2022/05/12 11:15:30;;;;;;;;;;;39.60;16.00;;;;;;5097653;28;20255;-90
2022/05/12 11:17:57;;;;;;;;;;;40.20;16.10;;;;;;5095932;28;19920;-90
2022/05/12 11:20:28;;;;;;;;;;;40.70;15.70;;;;;;5096772;28;19916;-90
2022/05/12 11:23:08;;;;;;;;;;;40.80;15.50;;;;;;5099566;28;19962;-90
2022/05/12 11:25:34;;;;;;;;;;;40.20;15.30;;;;;;5097459;28;20264;-90
2022/05/12 11:31:00;;;;;;;;;;;39.20;15.50;;;;;;5097297;28;19915;-90
2022/05/12 11:33:38;;;;;;;;;;;38.60;16.00;;;;;;5095325;28;19917;-89
2022/05/12 11:36:03;;;;;;;;;;;38.00;16.20;;;;;;5075321;28;19963;-90
2022/05/12 11:38:39;;;;;;;;;;;37.50;16.70;;;;;;5073210;28;19917;-89
2022/05/12 11:41:06;;;;;;;;;;;37.10;17.20;;;;;;5072492;28;19917;-90
2022/05/12 11:46:23;;;;;;;;;;;36.40;17.90;;;;;;5056989;28;19947;-90
2022/05/12 11:49:02;;;;;;;;;;;36.20;18.30;;;;;;5072097;28;19920;-90
2022/05/12 11:51:34;;;;;;;;;;;35.90;18.60;;;;;;5056451;28;20207;-89
2022/05/12 11:54:01;;;;;;;;;;;35.80;18.80;;;;;;5057440;28;19957;-89
2022/05/12 11:56:46;;;;;;;;;;;35.80;18.90;;;;;;5072624;28;19917;-89
2022/05/12 11:59:34;;;;;;;;;;;35.70;19.00;;;;;;5071244;28;20298;-90
2022/05/12 12:02:07;;;;;;;;;;;35.50;19.10;;;;;;5066896;28;19928;-89
2022/05/12 12:04:38;;;;;;;;;;;35.20;19.20;;;;;;5076390;28;19908;-89
2022/05/12 12:07:05;;;;;;;;;;;34.80;19.50;;;;;;5075906;28;19916;-89
2022/05/12 12:09:36;;;;;;;;;;;34.50;19.70;;;;;;5075854;28;19918;-89
2022/05/12 12:12:07;;;;;;;;;;;34.50;19.90;;;;;;5076109;28;19927;-88
2022/05/12 12:14:42;;;;;;;;;;;34.70;20.10;;;;;;5078509;28;19977;-89
2022/05/12 12:17:14;;;;;;;;;;;35.50;19.70;;;;;;5078432;28;19909;-89
2022/05/12 12:19:46;;;;;;;;;;;36.30;19.20;;;;;;5078174;28;19921;-90
2022/05/12 12:22:20;;;;;;;;;;;37.00;18.50;;;;;;5077886;28;19913;-90
2022/05/12 12:24:52;;;;;;;;;;;37.60;18.00;;;;;;5077149;28;19939;-91
2022/05/12 12:27:19;;;;;;;;;;;38.20;17.70;;;;;;5076661;28;19908;-90
2022/05/12 12:29:49;;;;;;;;;;;38.50;17.10;;;;;;5076391;28;19912;-91
2022/05/12 12:32:34;;;;;;;;;;;38.80;16.80;;;;;;5077478;28;19912;-90
2022/05/12 12:35:26;;;;;;;;;;;39.00;16.50;;;;;;5079775;28;20534;-89
2022/05/12 12:37:51;;;;;;;;;;;39.00;16.40;;;;;;5077212;28;19950;-89
2022/05/12 12:40:32;;;;;;;;;;;38.40;16.60;;;;;;5077690;28;19916;-89
2022/05/12 12:42:58;;;;;;;;;;;38.10;16.90;;;;;;5077881;28;19919;-89
2022/05/12 12:45:24;;;;;;;;;;;38.00;16.90;;;;;;5079049;28;19965;-90
2022/05/12 12:48:05;;;;;;;;;;;37.80;17.00;;;;;;5078025;28;19966;-89
2022/05/12 12:50:43;;;;;;;;;;;37.60;17.20;;;;;;5078920;28;20371;-90
2022/05/12 12:56:32;;;;;;;;;;;37.80;17.00;;;;;;5095174;28;19923;-89
2022/05/12 12:59:01;;;;;;;;;;;37.90;17.00;;;;;;5080217;28;19944;-89
2022/05/12 13:01:40;;;;;;;;;;;37.30;17.10;;;;;;5080479;28;19921;-90
2022/05/12 13:04:07;;;;;;;;;;;36.80;17.20;;;;;;5078075;28;20339;-91
2022/05/12 13:06:37;;;;;;;;;;;36.80;17.40;;;;;;5078409;28;20305;-90
2022/05/12 13:09:13;;;;;;;;;;;37.10;17.30;;;;;;5078586;28;19913;-90
2022/05/12 13:11:39;;;;;;;;;;;37.30;17.00;;;;;;5076694;28;20344;-91
2022/05/12 13:14:05;;;;;;;;;;;37.40;16.80;;;;;;5076369;28;19923;-90
2022/05/12 13:16:35;;;;;;;;;;;37.50;16.70;;;;;;5077615;28;19963;-90
2022/05/12 13:19:01;;;;;;;;;;;37.50;16.60;;;;;;5075351;28;19924;-90
2022/05/12 13:21:32;;;;;;;;;;;37.60;16.40;;;;;;5076165;28;19921;-90
2022/05/12 13:24:17;;;;;;;;;;;37.60;16.30;;;;;;5077484;28;20297;-90
2022/05/12 13:26:45;;;;;;;;;;;37.60;16.30;;;;;;5074424;28;20019;-90
2022/05/12 13:29:11;;;;;;;;;;;37.50;16.60;;;;;;5076493;28;19913;-89
2022/05/12 13:31:41;;;;;;;;;;;37.60;16.40;;;;;;5076309;28;19916;-90
2022/05/12 13:34:13;;;;;;;;;;;37.50;16.30;;;;;;5075815;28;20352;-89
2022/05/12 13:36:41;;;;;;;;;;;37.30;16.40;;;;;;5077799;28;20375;-89
2022/05/12 13:39:07;;;;;;;;;;;37.20;16.50;;;;;;5075651;28;19916;-88
2022/05/12 13:41:48;;;;;;;;;;;37.30;16.40;;;;;;5090692;28;20229;-88
2022/05/12 13:44:20;;;;;;;;;;;37.40;16.40;;;;;;5095798;28;19908;-90
2022/05/12 13:46:50;;;;;;;;;;;37.60;16.20;;;;;;5094761;28;20011;-87
2022/05/12 13:49:25;;;;;;;;;;;37.60;16.30;;;;;;5112439;28;19908;-89
2022/05/12 13:51:55;;;;;;;;;;;37.40;16.40;;;;;;5096127;28;19920;-88
2022/05/12 13:54:26;;;;;;;;;;;37.40;16.60;;;;;;5095862;28;19912;-89
2022/05/12 13:56:52;;;;;;;;;;;37.30;16.50;;;;;;5094785;28;19923;-88
2022/05/12 13:59:29;;;;;;;;;;;37.30;16.50;;;;;;5094776;28;20261;-88
2022/05/12 14:02:12;;;;;;;;;;;37.00;16.40;;;;;;5094811;28;19920;-88
2022/05/12 14:04:39;;;;;;;;;;;36.70;16.50;;;;;;5095252;28;20264;-89
2022/05/12 14:07:05;;;;;;;;;;;36.60;16.60;;;;;;5095240;28;19923;-88
2022/05/12 14:09:32;;;;;;;;;;;36.30;16.60;;;;;;5095947;28;20282;-87
2022/05/12 14:12:00;;;;;;;;;;;35.80;16.70;;;;;;5094177;28;20368;-89
2022/05/12 14:20:06;;;;;;;;;;;34.80;17.30;;;;;;5095589;28;20023;-88
2022/05/12 14:22:32;;;;;;;;;;;34.60;17.70;;;;;;5094256;28;19972;-89
2022/05/12 14:24:57;;;;;;;;;;;34.40;17.90;;;;;;5094599;28;19908;-89
2022/05/12 14:27:22;;;;;;;;;;;34.30;18.20;;;;;;5094893;28;19920;-89
2022/05/12 14:29:48;;;;;;;;;;;34.20;18.50;;;;;;5094166;28;19959;-88
2022/05/12 14:32:15;;;;;;;;;;;34.20;18.50;;;;;;5096384;28;19916;-89
2022/05/12 14:34:41;;;;;;;;;;;34.00;18.50;;;;;;5095655;28;19961;-89
2022/05/12 14:37:07;;;;;;;;;;;33.90;18.50;;;;;;5093808;28;19924;-89
2022/05/12 14:39:35;;;;;;;;;;;33.80;18.60;;;;;;5096448;28;20239;-89
2022/05/12 14:42:01;;;;;;;;;;;33.80;18.70;;;;;;5096067;28;19924;-88
2022/05/12 14:44:27;;;;;;;;;;;33.70;18.90;;;;;;5112096;28;19913;-88
2022/05/12 14:46:55;;;;;;;;;;;33.50;18.90;;;;;;5096939;28;19938;-88
2022/05/12 14:49:23;;;;;;;;;;;33.30;19.00;;;;;;5095108;28;19916;-88
2022/05/12 14:51:49;;;;;;;;;;;33.20;19.00;;;;;;5095990;28;19931;-88
2022/05/12 14:54:14;;;;;;;;;;;33.00;19.10;;;;;;5094736;28;19920;-88
2022/05/12 14:56:41;;;;;;;;;;;32.90;19.40;;;;;;5094507;28;19920;-89
2022/05/12 14:59:06;;;;;;;;;;;32.80;19.40;;;;;;5094413;28;20436;-89